ADDS METAR Data INFO
IDs: Format: Raw Decoded Include TAF

Data at: 1551 UTC 12 Dec 2017

KENL 121535Z AUTO 31015G21KT 10SM SCT025 M01/M08 A3020 RMK AO2 T10111076
KENL 121515Z AUTO 31014G21KT 10SM SCT027 M01/M07 A3020 RMK AO2 T10131071
KENL 121455Z AUTO 32015KT 10SM CLR M01/M09 A3020 RMK AO2 T10151086
KENL 121435Z AUTO 33018G23KT 10SM CLR M02/M08 A3018 RMK AO2 T10161076
KENL 121415Z AUTO 32013G21KT 10SM CLR M02/M08 A3018 RMK AO2 T10171079
KENL 121355Z AUTO 33016G24KT 10SM CLR M02/M08 A3017 RMK AO2 T10161077
KENL 121335Z AUTO 33016G22KT 10SM BKN026 M02/M07 A3017 RMK AO2 T10161068
KENL 121315Z AUTO 32012G16KT 10SM OVC026 M01/M06 A3016 RMK AO2 T10101057
KENL 121255Z AUTO 31011G17KT 10SM OVC028 M01/M06 A3014 RMK AO2 T10101056
KENL 121235Z AUTO 31013G19KT 10SM OVC030 M01/M06 A3013 RMK AO2 T10071056
KENL 121215Z AUTO 31016G23KT 10SM OVC032 00/M05 A3012 RMK AO2 T10041055
KENL 121155Z AUTO 31017G23KT 10SM OVC034 00/M05 A3010 RMK AO2 T00001053 10045 20000
KENL 121135Z AUTO 30015G24KT 10SM OVC036 01/M05 A3009 RMK AO2 T00051051
KENL 121115Z AUTO 30017G25KT 10SM OVC036 01/M04 A3008 RMK AO2 T00111043
KENL 121055Z AUTO 30013G28KT 10SM OVC033 02/M03 A3008 RMK AO2 T00181035
KENL 121035Z AUTO 32010G16KT 10SM SCT026 OVC035 02/M03 A3007 RMK AO2 T00231026
KENL 121015Z AUTO 32011KT 10SM OVC028 02/M02 A3007 RMK AO2 T00221023
KENL 120955Z AUTO 33013G18KT 10SM OVC028 02/M02 A3006 RMK AO2 T00231025
KENL 120935Z AUTO 33016G25KT 10SM OVC028 03/M02 A3006 RMK AO2 T00251020
KENL 120915Z AUTO 34017G25KT 10SM OVC024 03/M01 A3006 RMK AO2 T00271011
KENL 120855Z AUTO 33016G25KT 10SM OVC024 03/M01 A3005 RMK AO2 T00301006
KENL 120835Z AUTO 33016G22KT 10SM OVC024 03/00 A3004 RMK AO2 T00321003
KENL 120815Z AUTO 33018G26KT 10SM OVC022 03/00 A3003 RMK AO2 T00341002
KENL 120755Z AUTO 32017G27KT 10SM BKN020 OVC029 04/00 A3003 RMK AO2 T00350002
KENL 120735Z AUTO 33014G22KT 10SM BKN018 BKN022 OVC029 04/01 A3001 RMK AO2 T00400011
KENL 120715Z AUTO 31020G26KT 10SM OVC016 04/02 A3000 RMK AO2 T00420022
KENL 120655Z AUTO 32012G17KT 10SM OVC016 04/03 A3000 RMK AO2 T00420025
KENL 120635Z AUTO 32015G24KT 10SM OVC016 05/03 A3000 RMK AO2 T00450025
KENL 120615Z AUTO 32014G22KT 10SM BKN010 OVC016 05/03 A2999 RMK AO2 T00450031
KENL 120555Z AUTO 31014G21KT 4SM -RA OVC014 05/04 A2999 RMK AO2 T00450035 10105 20045 401591040
KENL 120535Z AUTO 32017G23KT 10SM -DZ BKN016 OVC022 05/03 A2998 RMK AO2 T00510029
KENL 120515Z AUTO 32020G24KT 10SM -DZ BKN022 OVC029 06/03 A2997 RMK AO2 T00560025
KENL 120455Z AUTO 32019G26KT 10SM BKN028 BKN036 OVC055 06/02 A2996 RMK AO2 T00600022
KENL 120435Z AUTO 31012G26KT 10SM -DZ OVC028 06/02 A2995 RMK AO2 T00600022
KENL 120415Z AUTO 32017G28KT 10SM OVC028 07/02 A2994 RMK AO2 T00670017
KENL 120355Z AUTO 32016G23KT 10SM OVC032 07/02 A2993 RMK AO2 T00700015
KENL 120335Z AUTO 31011G24KT 10SM OVC034 07/01 A2992 RMK AO2 T00730014
KENL 120315Z AUTO 31016G24KT 10SM OVC036 08/01 A2992 RMK AO2 T00750014
KENL 120255Z AUTO 31017G25KT 10SM OVC038 08/01 A2991 RMK AO2 T00780013
KENL 120235Z AUTO 31018G26KT 10SM OVC042 08/01 A2990 RMK AO2 T00810012
KENL 120215Z AUTO 31015G22KT 10SM OVC044 09/01 A2990 RMK AO2 T00850010
KENL 120155Z AUTO 31014G18KT 10SM OVC046 09/01 A2989 RMK AO2 T00860005
KENL 120135Z AUTO 31009G17KT 10SM BKN050 OVC060 09/00 A2988 RMK AO2 T00890003
KENL 120115Z AUTO 30012KT 10SM OVC060 09/00 A2987 RMK AO2 T00920000
KENL 120055Z AUTO 30013KT 10SM OVC060 10/00 A2987 RMK AO2 T00950000
KENL 120035Z AUTO 30018G22KT 10SM OVC065 10/00 A2985 RMK AO2 T00970000
KENL 120015Z AUTO 30015G20KT 10SM OVC065 10/00 A2985 RMK AO2 T01011002
KENL 112355Z AUTO 30021G25KT 10SM OVC065 10/00 A2984 RMK AO2 T01030000 10159 20103
KENL 112335Z AUTO 30016G23KT 10SM OVC065 11/00 A2983 RMK AO2 T01061002
KENL 112315Z AUTO 29014G21KT 10SM OVC065 11/M01 A2982 RMK AO2 T01081007
KENL 112255Z AUTO 28015G22KT 10SM OVC065 11/M01 A2981 RMK AO2 T01101010
KENL 112235Z AUTO 29019G29KT 10SM SCT065 11/M01 A2980 RMK AO2 T01121015
KENL 112215Z AUTO 29021G29KT 10SM CLR 12/M02 A2980 RMK AO2 T01161016
KENL 112155Z AUTO 28027G36KT 10SM CLR 13/M02 A2978 RMK AO2 T01261021
KENL 112135Z AUTO 27021G29KT 10SM CLR 14/M03 A2975 RMK AO2 T01351029
KENL 112115Z AUTO 27020G26KT 10SM CLR 14/M03 A2974 RMK AO2 T01411033
KENL 112055Z AUTO 27015G21KT 10SM CLR 14/M03 A2973 RMK AO2 T01431033
KENL 112035Z AUTO 27016G22KT 10SM CLR 15/M03 A2974 RMK AO2 T01481032
KENL 112015Z AUTO 29017G20KT 10SM CLR 15/00 A2973 RMK AO2 T01511003
KENL 111955Z AUTO 23010KT 10SM CLR 14/00 A2972 RMK AO2 T01420002
KENL 111935Z AUTO 22011KT 10SM CLR 15/00 A2972 RMK AO2 T01451001
KENL 111915Z AUTO 21015G23KT 10SM CLR 15/00 A2972 RMK AO2 T01521003
KENL 111855Z AUTO 22016G21KT 10SM CLR 16/00 A2974 RMK AO2 T01551004
KENL 111835Z AUTO 21015G25KT 10SM CLR 15/00 A2974 RMK AO2 T01471002
KENL 111815Z AUTO 20017G21KT 10SM CLR 14/00 A2975 RMK AO2 T01390002
KENL 111755Z AUTO 20014KT 10SM CLR 13/00 A2977 RMK AO2 T01300001 10130 20008
KENL 111735Z AUTO 19021G24KT 10SM CLR 12/00 A2979 RMK AO2 T01240000
KENL 111715Z AUTO 19019G25KT 10SM CLR 12/00 A2981 RMK AO2 T01170000
KENL 111655Z AUTO 18017G25KT 10SM SCT120 10/00 A2983 RMK AO2 T01031005
KENL 111635Z AUTO 19017G23KT 10SM SCT120 11/00 A2987 RMK AO2 T01050000
KENL 111615Z AUTO 19016G22KT 10SM CLR 09/00 A2990 RMK AO2 T00910000
KENL 111555Z AUTO 19014G19KT 10SM CLR 08/00 A2993 RMK AO2 T00811004
KENL 111535Z AUTO 19015KT 10SM CLR 08/00 A2994 RMK AO2 T00811004
KENL 111515Z AUTO 19012G16KT 10SM CLR 06/M01 A2995 RMK AO2 T00621007
KENL 111455Z AUTO 18010KT 10SM CLR 05/M01 A2997 RMK AO2 T00511010
KENL 111435Z AUTO 18006KT 10SM CLR 04/M01 A2999 RMK AO2 T00401013
KENL 111415Z AUTO 18008KT 10SM CLR 04/M01 A3000 RMK AO2 T00421011
KENL 111355Z AUTO 17006KT 10SM CLR 02/M01 A3001 RMK AO2 T00241013
KENL 111335Z AUTO 17009KT 10SM CLR 02/M02 A3003 RMK AO2 T00201016
KENL 111315Z AUTO 17009KT 10SM CLR 02/M02 A3004 RMK AO2 T00161017
KENL 111255Z AUTO 17009KT 10SM CLR 01/M02 A3003 RMK AO2 T00121019
KENL 111235Z AUTO 17007KT 10SM CLR 01/M02 A3003 RMK AO2 T00121022
KENL 111215Z AUTO 17008KT 10SM CLR 01/M02 A3005 RMK AO2 T00091020
KENL 111155Z AUTO 17005KT 10SM CLR 01/M02 A3006 RMK AO2 T00111019 10013 21040
KENL 111135Z AUTO 14003KT 10SM CLR 01/M02 A3006 RMK AO2 T00051023
KENL 111115Z AUTO 15006KT 10SM CLR M01/M03 A3006 RMK AO2 T10111027
KENL 111055Z AUTO 00000KT 10SM CLR M02/M04 A3008 RMK AO2 T10171038
KENL 111035Z AUTO 15003KT 10SM CLR M01/M03 A3008 RMK AO2 T10101035
KENL 111015Z AUTO 17008KT 10SM CLR 00/M03 A3008 RMK AO2 T00001028
KENL 110955Z AUTO 17007KT 10SM CLR M02/M03 A3008 RMK AO2 T10171033
KENL 110935Z AUTO 18005KT 10SM CLR M01/M04 A3009 RMK AO2 T10151038
KENL 110915Z AUTO 17005KT 10SM CLR M02/M04 A3010 RMK AO2 T10251042
KENL 110855Z AUTO 00000KT 10SM CLR M04/M04 A3010 RMK AO2 T10361044
KENL 110835Z AUTO 14004KT 10SM CLR M04/M05 A3010 RMK AO2 T10391048
KENL 110815Z AUTO 00000KT 10SM CLR M03/M04 A3010 RMK AO2 T10291039
KENL 110755Z AUTO 19003KT 10SM CLR M03/M04 A3011 RMK AO2 T10331044
KENL 110735Z AUTO 00000KT 10SM CLR M03/M04 A3011 RMK AO2 T10261039
KENL 110715Z AUTO 18003KT 10SM CLR M03/M04 A3012 RMK AO2 T10261036
KENL 110655Z AUTO 00000KT 10SM CLR M04/M05 A3012 RMK AO2 T10371046
KENL 110635Z AUTO 00000KT 10SM CLR M04/M05 A3012 RMK AO2 T10361046
KENL 110615Z AUTO 00000KT 10SM CLR M03/M04 A3012 RMK AO2 T10341045
KENL 110555Z AUTO 00000KT 10SM CLR M02/M04 A3013 RMK AO2 T10211036 10058 21023 401001060
KENL 110535Z AUTO 00000KT 10SM CLR M02/M04 A3013 RMK AO2 T10221037
KENL 110515Z AUTO 00000KT 10SM CLR M02/M04 A3013 RMK AO2 T10211039
KENL 110455Z AUTO 00000KT 10SM CLR M02/M03 A3013 RMK AO2 T10171035
KENL 110435Z AUTO 00000KT 10SM CLR M01/M03 A3013 RMK AO2 T10081034
KENL 110415Z AUTO 00000KT 10SM CLR M01/M04 A3013 RMK AO2 T10101038
KENL 110355Z AUTO 00000KT 10SM CLR M01/M04 A3013 RMK AO2 T10071036